createdAt,value
2019-06-27T00:02:26.646Z,11.90
2019-06-27T00:06:35.521Z,11.33
2019-06-27T00:10:44.470Z,11.67
2019-06-27T00:14:53.260Z,11.67
2019-06-27T00:19:02.067Z,13.87
2019-06-27T00:23:11.208Z,12.20
2019-06-27T00:27:20.032Z,12.20
2019-06-27T00:31:28.835Z,10.90
2019-06-27T00:35:37.621Z,11.73
2019-06-27T00:39:46.423Z,11.30
2019-06-27T00:43:55.215Z,10.83
2019-06-27T00:48:04.174Z,10.43
2019-06-27T00:52:13.103Z,9.77
2019-06-27T00:56:22.128Z,10.33
2019-06-27T01:00:30.946Z,10.00
2019-06-27T01:04:39.994Z,9.47
2019-06-27T01:08:48.794Z,10.13
2019-06-27T01:12:57.580Z,9.63
2019-06-27T01:17:06.674Z,9.57
2019-06-27T01:21:15.474Z,9.13
2019-06-27T01:25:24.268Z,8.13
2019-06-27T01:29:33.051Z,8.47
2019-06-27T01:33:41.878Z,10.70
2019-06-27T01:37:50.954Z,10.07
2019-06-27T01:41:59.740Z,9.20
2019-06-27T01:46:08.622Z,11.03
2019-06-27T01:50:17.483Z,9.53
2019-06-27T01:54:26.295Z,8.60
2019-06-27T01:58:35.135Z,10.63
2019-06-27T02:02:44.095Z,9.50
2019-06-27T02:06:53.066Z,9.10
2019-06-27T02:11:02.075Z,8.80
2019-06-27T02:15:12.615Z,9.67
2019-06-27T02:19:21.476Z,9.00
2019-06-27T02:23:30.543Z,10.23
2019-06-27T02:27:39.507Z,10.63
2019-06-27T02:31:48.328Z,10.30
2019-06-27T02:35:57.148Z,10.83
2019-06-27T02:40:06.196Z,11.40
2019-06-27T02:44:15.095Z,13.67
2019-06-27T02:48:23.979Z,14.20
2019-06-27T02:52:32.868Z,13.37
2019-06-27T02:56:41.719Z,14.63
2019-06-27T03:00:50.518Z,14.57
2019-06-27T03:04:59.507Z,14.90
2019-06-27T03:09:08.471Z,14.63
2019-06-27T03:13:17.571Z,15.73
2019-06-27T03:17:26.532Z,14.20
2019-06-27T03:21:35.432Z,16.30
2019-06-27T03:25:44.256Z,15.67
2019-06-27T03:29:53.192Z,15.83
2019-06-27T03:34:02.092Z,16.00
2019-06-27T03:38:10.983Z,15.60
2019-06-27T03:42:19.891Z,16.10
2019-06-27T03:46:28.749Z,15.63
2019-06-27T03:50:37.739Z,16.10
2019-06-27T03:54:46.576Z,15.83
2019-06-27T03:59:11.214Z,16.67
2019-06-27T04:03:06.079Z,17.87
2019-06-27T04:07:15.041Z,17.53
2019-06-27T04:11:23.857Z,16.63
2019-06-27T04:15:32.753Z,17.30
2019-06-27T04:19:41.727Z,19.40
2019-06-27T04:23:50.692Z,20.23
2019-06-27T04:28:00.256Z,21.00
2019-06-27T04:32:09.759Z,20.70
2019-06-27T04:36:18.644Z,20.97
2019-06-27T04:40:27.543Z,22.90
2019-06-27T04:44:36.364Z,24.33
2019-06-27T04:48:45.192Z,22.93
2019-06-27T04:52:54.011Z,25.63
2019-06-27T04:57:02.837Z,25.10
2019-06-27T05:01:11.751Z,24.50
2019-06-27T05:05:20.557Z,24.93
2019-06-27T05:09:29.751Z,25.60
2019-06-27T05:13:38.721Z,25.33
2019-06-27T05:17:47.544Z,27.37
2019-06-27T05:21:56.359Z,29.70
2019-06-27T05:26:05.259Z,29.20
2019-06-27T05:30:14.519Z,26.57
2019-06-27T05:34:23.343Z,28.53
2019-06-27T05:38:32.161Z,28.47
2019-06-27T05:42:41.053Z,28.40
2019-06-27T05:46:49.863Z,29.50
2019-06-27T05:50:58.691Z,28.40
2019-06-27T05:55:07.732Z,29.33
2019-06-27T05:59:16.630Z,29.93
2019-06-27T06:03:25.451Z,27.73
2019-06-27T06:07:34.259Z,27.40
2019-06-27T06:11:43.126Z,30.17
2019-06-27T06:15:51.950Z,30.00
2019-06-27T06:20:01.044Z,30.07
2019-06-27T06:24:09.850Z,30.00
2019-06-27T06:28:18.833Z,29.80
2019-06-27T06:32:27.642Z,32.10
2019-06-27T06:36:36.530Z,30.47
2019-06-27T06:40:45.418Z,30.57
2019-06-27T06:44:54.301Z,30.27
2019-06-27T06:49:03.194Z,29.17
2019-06-27T06:53:12.097Z,28.00
2019-06-27T06:57:20.931Z,28.57
2019-06-27T07:01:29.826Z,31.13
2019-06-27T07:05:38.839Z,27.97
2019-06-27T07:09:47.662Z,27.27
2019-06-27T07:13:56.513Z,27.43
2019-06-27T07:18:05.459Z,26.10
2019-06-27T07:22:14.890Z,28.00
2019-06-27T07:26:23.857Z,28.90
2019-06-27T07:30:32.794Z,26.30
2019-06-27T07:34:41.766Z,28.00
2019-06-27T07:38:50.599Z,25.63
2019-06-27T07:42:59.507Z,26.00
2019-06-27T07:47:08.457Z,23.30
2019-06-27T07:51:17.375Z,24.93
2019-06-27T07:55:26.367Z,24.83
2019-06-27T07:59:35.413Z,25.20
2019-06-27T08:03:44.218Z,24.33
2019-06-27T08:07:55.624Z,23.70
2019-06-27T08:12:04.529Z,22.90
2019-06-27T08:16:13.440Z,21.27
2019-06-27T08:20:22.330Z,22.13
2019-06-27T08:24:34.292Z,21.33
2019-06-27T08:28:41.798Z,23.20
2019-06-27T08:32:50.639Z,22.73
2019-06-27T08:36:59.492Z,22.73
2019-06-27T08:41:08.451Z,23.63
2019-06-27T08:45:17.415Z,22.47
2019-06-27T08:49:26.299Z,23.33
2019-06-27T08:53:35.113Z,21.47
2019-06-27T08:57:43.939Z,21.53
2019-06-27T09:02:07.304Z,18.90
2019-06-27T09:06:03.452Z,18.43
2019-06-27T09:10:13.022Z,18.57
2019-06-27T09:14:23.063Z,17.83
2019-06-27T09:18:32.565Z,17.17
2019-06-27T09:22:41.512Z,16.10
2019-06-27T09:26:50.407Z,15.83
2019-06-27T09:30:59.386Z,14.70
2019-06-27T09:35:08.854Z,13.43
2019-06-27T09:39:17.866Z,11.03
2019-06-27T09:43:26.757Z,10.43
2019-06-27T09:47:35.659Z,9.47
2019-06-27T09:51:44.638Z,8.10
2019-06-27T09:55:53.585Z,7.47
2019-06-27T10:00:02.527Z,8.70
2019-06-27T10:04:11.673Z,8.00
2019-06-27T10:08:20.481Z,9.90
2019-06-27T10:12:41.786Z,7.10
2019-06-27T10:16:40.082Z,7.60
2019-06-27T10:20:48.931Z,7.40
2019-06-27T10:24:57.817Z,6.23
2019-06-27T10:29:06.783Z,6.00
2019-06-27T10:33:15.757Z,6.07
2019-06-27T10:37:24.663Z,5.30
2019-06-27T10:41:33.479Z,5.50
2019-06-27T10:45:42.437Z,4.50
2019-06-27T10:49:51.329Z,5.67
2019-06-27T10:54:00.234Z,5.83
2019-06-27T10:58:09.094Z,5.03
2019-06-27T11:02:17.887Z,4.80
2019-06-27T11:06:26.784Z,5.17
2019-06-27T11:10:35.933Z,4.97
2019-06-27T11:14:58.226Z,3.97
2019-06-27T11:18:55.336Z,4.27
2019-06-27T11:23:04.463Z,3.77
2019-06-27T11:27:13.433Z,4.10
2019-06-27T11:31:22.339Z,3.87
2019-06-27T11:35:31.162Z,3.40
2019-06-27T11:39:39.990Z,3.93
2019-06-27T11:43:48.872Z,3.60
2019-06-27T11:47:57.959Z,3.90
2019-06-27T11:52:06.992Z,3.73
2019-06-27T11:56:15.857Z,4.27
2019-06-27T12:00:24.862Z,4.00
2019-06-27T12:04:33.757Z,3.47
2019-06-27T12:08:42.571Z,3.40
2019-06-27T12:12:51.489Z,4.00
2019-06-27T12:17:00.394Z,3.70
2019-06-27T12:21:09.361Z,3.73
2019-06-27T12:25:18.458Z,4.10
2019-06-27T12:29:27.337Z,4.70
2019-06-27T12:33:36.217Z,4.53
2019-06-27T12:37:45.307Z,3.77
2019-06-27T12:41:54.278Z,4.60
2019-06-27T12:46:03.756Z,4.13
2019-06-27T12:50:13.397Z,4.60
2019-06-27T12:54:22.265Z,4.57
2019-06-27T12:58:31.749Z,5.20
2019-06-27T13:02:40.628Z,4.90
2019-06-27T13:06:49.523Z,4.50
2019-06-27T13:10:58.334Z,5.60
2019-06-27T13:15:07.803Z,5.87
2019-06-27T13:19:16.844Z,5.50
2019-06-27T13:23:25.658Z,5.97
2019-06-27T13:27:34.550Z,6.10
2019-06-27T13:31:43.432Z,5.43
2019-06-27T13:35:52.239Z,5.27
2019-06-27T13:40:04.598Z,4.83
2019-06-27T13:44:12.053Z,5.60
2019-06-27T13:48:21.030Z,6.03
2019-06-27T13:52:29.910Z,6.40
2019-06-27T13:56:38.890Z,6.10
2019-06-27T14:00:48.031Z,6.00
2019-06-27T14:04:57.897Z,5.67
2019-06-27T14:09:07.001Z,6.03
2019-06-27T14:13:15.997Z,5.50
2019-06-27T14:17:24.831Z,5.60
2019-06-27T14:21:33.630Z,5.13
2019-06-27T14:25:42.691Z,5.03
2019-06-27T14:29:51.526Z,5.00
2019-06-27T14:34:00.333Z,4.70
2019-06-27T14:38:09.216Z,5.23
2019-06-27T14:42:18.343Z,5.20
2019-06-27T14:46:27.451Z,5.33
2019-06-27T14:50:36.813Z,4.87
2019-06-27T14:54:47.359Z,5.30
2019-06-27T14:58:56.390Z,5.60
2019-06-27T15:03:05.366Z,4.70
2019-06-27T15:07:14.269Z,5.10
2019-06-27T15:11:23.241Z,7.83
2019-06-27T15:15:32.123Z,4.60
2019-06-27T15:19:41.036Z,6.03
2019-06-27T15:23:50.011Z,5.37
2019-06-27T15:27:59.024Z,5.60
2019-06-27T15:32:08.051Z,6.17
2019-06-27T15:36:16.995Z,10.33
2019-06-27T15:40:26.235Z,12.50
2019-06-27T15:44:35.269Z,14.60
2019-06-27T15:48:44.191Z,15.70
2019-06-27T15:52:53.023Z,15.50
2019-06-27T15:57:02.488Z,12.80
2019-06-27T16:01:11.543Z,10.27
2019-06-27T16:05:20.518Z,8.40
2019-06-27T16:09:29.639Z,9.27
2019-06-27T16:13:38.549Z,13.00
2019-06-27T16:17:47.372Z,5.20
2019-06-27T16:21:56.382Z,5.00
2019-06-27T16:26:05.371Z,5.60
2019-06-27T16:30:15.374Z,5.30
2019-06-27T16:34:24.289Z,5.20
2019-06-27T16:38:33.086Z,4.80
2019-06-27T16:42:41.980Z,4.90
2019-06-27T16:46:50.866Z,8.33
2019-06-27T16:50:59.673Z,4.20
2019-06-27T16:55:09.121Z,4.80
2019-06-27T16:59:17.931Z,4.37
2019-06-27T17:03:26.734Z,4.83
2019-06-27T17:07:35.989Z,4.57
2019-06-27T17:11:44.913Z,4.63
2019-06-27T17:15:53.863Z,4.33
2019-06-27T17:20:02.801Z,4.87
2019-06-27T17:24:11.606Z,4.67
2019-06-27T17:28:20.424Z,4.83
2019-06-27T17:32:29.496Z,4.50
2019-06-27T17:36:38.460Z,4.60
2019-06-27T17:40:47.254Z,4.10
2019-06-27T17:44:56.133Z,4.80
2019-06-27T17:49:05.094Z,5.07
2019-06-27T17:53:13.981Z,4.73
2019-06-27T17:57:22.970Z,4.40
2019-06-27T18:01:32.283Z,4.47
2019-06-27T18:05:41.083Z,4.30
2019-06-27T18:09:50.250Z,4.80
2019-06-27T18:13:59.054Z,4.60
2019-06-27T18:18:07.925Z,4.77
2019-06-27T18:22:16.821Z,4.40
2019-06-27T18:26:25.707Z,4.30
2019-06-27T18:30:35.161Z,4.90
2019-06-27T18:34:43.978Z,4.47
2019-06-27T18:38:52.883Z,4.13
2019-06-27T18:43:01.704Z,4.27
2019-06-27T18:47:10.662Z,5.30
2019-06-27T18:51:19.593Z,3.97
2019-06-27T18:55:28.899Z,4.40
2019-06-27T18:59:37.790Z,4.40
2019-06-27T19:03:46.606Z,4.27
2019-06-27T19:07:55.531Z,4.60
2019-06-27T19:12:04.482Z,4.30
2019-06-27T19:16:13.362Z,4.50
2019-06-27T19:20:27.766Z,4.43
2019-06-27T19:24:41.950Z,4.60
2019-06-27T19:28:51.919Z,4.43
2019-06-27T19:33:00.820Z,4.10
2019-06-27T19:37:09.702Z,3.90
2019-06-27T19:41:18.593Z,5.00
2019-06-27T19:45:27.485Z,4.20
2019-06-27T19:49:36.402Z,4.50
2019-06-27T19:53:45.233Z,5.10
2019-06-27T19:57:54.117Z,5.20
2019-06-27T20:02:03.094Z,3.90
2019-06-27T20:06:12.082Z,4.50
2019-06-27T20:10:21.524Z,4.20
2019-06-27T20:14:30.513Z,4.30
2019-06-27T20:18:39.720Z,4.43
2019-06-27T20:22:48.526Z,4.30
2019-06-27T20:26:57.518Z,4.37
2019-06-27T20:31:06.399Z,4.33
2019-06-27T20:35:15.797Z,4.50
2019-06-27T20:39:24.913Z,4.40
2019-06-27T20:43:34.374Z,4.40
2019-06-27T20:47:43.251Z,4.97
2019-06-27T20:51:52.979Z,4.43
2019-06-27T20:56:02.057Z,5.13
2019-06-27T21:00:11.555Z,5.33
2019-06-27T21:04:20.436Z,4.60
2019-06-27T21:08:29.275Z,4.50
2019-06-27T21:12:38.274Z,5.13
2019-06-27T21:16:47.102Z,4.90
2019-06-27T21:20:55.946Z,5.00
2019-06-27T21:25:05.251Z,5.50
2019-06-27T21:29:16.985Z,5.30
2019-06-27T21:33:24.661Z,4.77
2019-06-27T21:37:33.485Z,4.87
2019-06-27T21:41:42.402Z,5.23
2019-06-27T21:45:51.235Z,5.10
2019-06-27T21:50:00.050Z,5.57
2019-06-27T21:54:09.179Z,4.90
2019-06-27T21:58:18.059Z,5.73
2019-06-27T22:02:26.954Z,5.67
2019-06-27T22:06:35.841Z,7.00
2019-06-27T22:10:44.886Z,5.53
2019-06-27T22:14:53.845Z,5.10
2019-06-27T22:19:03.062Z,5.20
2019-06-27T22:23:11.951Z,5.50
2019-06-27T22:27:20.914Z,5.53
2019-06-27T22:31:29.882Z,6.00
2019-06-27T22:35:38.715Z,6.07
2019-06-27T22:40:05.268Z,5.57
2019-06-27T22:44:32.070Z,6.00
2019-06-27T22:48:40.067Z,5.50
2019-06-27T22:53:11.050Z,6.03
2019-06-27T22:57:19.897Z,6.13
2019-06-27T23:01:28.845Z,5.43
2019-06-27T23:05:37.735Z,5.10
2019-06-27T23:09:56.557Z,5.40
2019-06-27T23:13:57.195Z,5.53
2019-06-27T23:18:06.094Z,5.70
2019-06-27T23:22:14.986Z,5.87
2019-06-27T23:26:24.116Z,5.87
2019-06-27T23:30:33.214Z,6.37
2019-06-27T23:34:42.349Z,5.73
2019-06-27T23:38:51.177Z,5.70
2019-06-27T23:43:00.050Z,6.00
2019-06-27T23:47:09.165Z,5.80
2019-06-27T23:51:18.308Z,6.10
2019-06-27T23:55:27.253Z,6.23
2019-06-27T23:59:36.217Z,6.10
